createdAt,value
2022-12-01T00:00:05.557Z,100936.50
2022-12-01T00:03:13.621Z,100944.66
2022-12-01T00:06:20.877Z,100944.91
2022-12-01T00:09:46.852Z,100946.97
2022-12-01T00:12:49.964Z,100947.41
2022-12-01T00:15:57.146Z,100943.62
2022-12-01T00:18:59.739Z,100943.16
2022-12-01T00:22:02.377Z,100952.13
2022-12-01T00:25:11.309Z,100949.31
2022-12-01T00:28:18.537Z,100946.44
2022-12-01T00:31:36.273Z,100953.69
2022-12-01T00:34:38.934Z,100951.56
2022-12-01T00:37:47.883Z,100948.47
2022-12-01T00:40:55.915Z,100954.59
2022-12-01T00:44:02.315Z,100959.25
2022-12-01T00:47:05.772Z,100949.88
2022-12-01T00:50:11.846Z,100967.12
2022-12-01T00:53:16.460Z,100964.00
2022-12-01T00:56:19.213Z,100963.28
2022-12-01T00:59:23.362Z,100966.72
2022-12-01T01:02:28.873Z,100964.06
2022-12-01T01:05:38.767Z,100966.81
2022-12-01T01:08:43.189Z,100971.09
2022-12-01T01:11:45.876Z,100962.63
2022-12-01T01:14:48.583Z,100961.91
2022-12-01T01:17:52.180Z,100955.94
2022-12-01T01:21:10.004Z,100957.69
2022-12-01T01:24:12.222Z,100955.87
2022-12-01T01:27:17.460Z,100960.44
2022-12-01T01:30:22.613Z,100960.31
2022-12-01T01:33:25.542Z,100949.91
2022-12-01T01:36:28.463Z,100953.13
2022-12-01T01:39:31.552Z,100952.53
2022-12-01T01:42:39.141Z,100953.62
2022-12-01T01:45:41.349Z,100954.75
2022-12-01T01:48:46.633Z,100953.81
2022-12-01T01:52:00.907Z,100949.00
2022-12-01T01:55:03.590Z,100949.00
2022-12-01T01:58:09.395Z,100955.22
2022-12-01T02:01:12.250Z,100957.12
2022-12-01T02:04:18.413Z,100944.56
2022-12-01T02:07:24.533Z,100946.41
2022-12-01T02:10:50.471Z,100946.59
2022-12-01T02:14:01.575Z,100940.69
2022-12-01T02:17:21.377Z,100944.09
2022-12-01T02:20:39.916Z,100940.47
2022-12-01T02:24:01.424Z,100951.75
2022-12-01T02:27:14.427Z,100944.88
2022-12-01T02:30:25.784Z,100947.72
2022-12-01T02:33:37.112Z,100949.88
2022-12-01T02:36:56.586Z,100943.94
2022-12-01T02:40:04.089Z,100947.66
2022-12-01T02:43:25.560Z,100947.59
2022-12-01T02:46:32.061Z,100943.16
2022-12-01T02:49:51.686Z,100938.00
2022-12-01T02:52:56.838Z,100938.78
2022-12-01T02:56:07.759Z,100935.37
2022-12-01T02:59:14.533Z,100936.28
2022-12-01T03:02:32.532Z,100936.50
2022-12-01T03:05:51.598Z,100932.97
2022-12-01T03:09:10.059Z,100937.28
2022-12-01T03:12:23.498Z,100944.94
2022-12-01T03:15:49.697Z,100939.81
2022-12-01T03:19:17.733Z,100941.53
2022-12-01T03:22:38.656Z,100938.81
2022-12-01T03:25:42.853Z,100938.69
2022-12-01T03:29:17.927Z,100933.66
2022-12-01T03:32:40.742Z,100933.72
2022-12-01T03:35:53.428Z,100921.84
2022-12-01T03:39:09.288Z,100926.19
2022-12-01T03:42:18.283Z,100913.50
2022-12-01T03:45:32.333Z,100919.38
2022-12-01T03:48:37.635Z,100919.88
2022-12-01T03:51:50.330Z,100919.63
2022-12-01T03:55:09.100Z,100917.75
2022-12-01T03:58:14.550Z,100920.06
2022-12-01T04:01:20.827Z,100918.41
2022-12-01T04:04:27.141Z,100921.63
2022-12-01T04:07:29.669Z,100920.03
2022-12-01T04:10:37.417Z,100923.47
2022-12-01T04:13:41.347Z,100919.88
2022-12-01T04:16:48.230Z,100901.84
2022-12-01T04:19:51.461Z,100905.13
2022-12-01T04:22:59.055Z,100902.66
2022-12-01T04:26:03.450Z,100897.25
2022-12-01T04:29:12.301Z,100905.59
2022-12-01T04:32:17.413Z,100902.09
2022-12-01T04:35:19.894Z,100912.47
2022-12-01T04:38:24.989Z,100920.09
2022-12-01T04:41:35.460Z,100923.75
2022-12-01T04:44:38.082Z,100926.53
2022-12-01T04:47:44.241Z,100930.91
2022-12-01T04:50:56.378Z,100948.31
2022-12-01T04:54:06.972Z,100936.31
2022-12-01T04:57:10.778Z,100943.88
2022-12-01T05:00:18.603Z,100936.16
2022-12-01T05:03:22.036Z,100946.59
2022-12-01T05:06:28.961Z,100939.88
2022-12-01T05:09:31.926Z,100938.13
2022-12-01T05:12:34.555Z,100934.94
2022-12-01T05:15:39.444Z,100931.78
2022-12-01T05:18:42.378Z,100933.91
2022-12-01T05:21:48.183Z,100927.00
2022-12-01T05:24:53.347Z,100932.47
2022-12-01T05:27:57.344Z,100928.50
2022-12-01T05:31:04.187Z,100932.91
2022-12-01T05:34:07.614Z,100930.50
2022-12-01T05:37:12.145Z,100921.94
2022-12-01T05:40:15.048Z,100928.69
2022-12-01T05:43:25.417Z,100936.22
2022-12-01T05:46:36.884Z,100935.03
2022-12-01T05:49:40.387Z,100931.00
2022-12-01T05:52:44.135Z,100934.81
2022-12-01T05:55:47.719Z,100934.31
2022-12-01T05:58:51.842Z,100931.75
2022-12-01T06:01:55.300Z,100937.97
2022-12-01T06:04:59.240Z,100944.03
2022-12-01T06:08:03.179Z,100942.31
2022-12-01T06:11:06.503Z,100944.88
2022-12-01T06:14:09.339Z,100947.53
2022-12-01T06:17:18.279Z,100948.38
2022-12-01T06:20:25.365Z,100953.62
2022-12-01T06:23:30.786Z,100957.81
2022-12-01T06:26:33.434Z,100961.28
2022-12-01T06:29:41.952Z,100953.62
2022-12-01T06:32:45.719Z,100962.94
2022-12-01T06:35:49.008Z,100956.97
2022-12-01T06:38:56.536Z,100956.97
2022-12-01T06:42:00.836Z,100962.19
2022-12-01T06:45:07.548Z,100950.72
2022-12-01T06:48:10.631Z,100947.31
2022-12-01T06:51:14.513Z,100944.63
2022-12-01T06:54:20.176Z,100944.50
2022-12-01T06:57:25.334Z,100951.28
2022-12-01T07:00:29.126Z,100953.88
2022-12-01T07:03:35.993Z,100958.84
2022-12-01T07:06:42.569Z,100957.03
2022-12-01T07:09:45.384Z,100955.22
2022-12-01T07:12:49.684Z,100956.03
2022-12-01T07:15:53.536Z,100950.75
2022-12-01T07:18:56.671Z,100961.69
2022-12-01T07:22:00.183Z,100964.09
2022-12-01T07:25:03.673Z,100962.94
2022-12-01T07:28:08.211Z,100961.09
2022-12-01T07:31:22.687Z,100966.72
2022-12-01T07:34:26.522Z,100971.28
2022-12-01T07:37:35.105Z,100968.28
2022-12-01T07:40:44.369Z,100968.72
2022-12-01T07:43:55.184Z,100962.94
2022-12-01T07:46:59.741Z,100967.72
2022-12-01T07:50:16.174Z,100963.97
2022-12-01T07:53:36.543Z,100962.00
2022-12-01T07:56:40.767Z,100963.34
2022-12-01T07:59:45.571Z,100965.69
2022-12-01T08:02:54.108Z,100967.75
2022-12-01T08:06:04.115Z,100965.69
2022-12-01T08:09:26.821Z,100969.47
2022-12-01T08:12:32.697Z,100965.97
2022-12-01T08:15:36.579Z,100973.19
2022-12-01T08:18:48.826Z,100967.34
2022-12-01T08:21:54.788Z,100962.63
2022-12-01T08:24:58.317Z,100972.91
2022-12-01T08:28:04.343Z,100969.63
2022-12-01T08:31:21.639Z,100966.81
2022-12-01T08:34:26.024Z,100964.81
2022-12-01T08:37:31.115Z,100976.16
2022-12-01T08:40:37.220Z,100977.88
2022-12-01T08:43:57.255Z,100978.91
2022-12-01T08:47:01.596Z,100984.41
2022-12-01T08:50:05.802Z,100986.19
2022-12-01T08:53:08.673Z,100984.84
2022-12-01T08:56:13.461Z,100979.75
2022-12-01T08:59:19.110Z,100979.22
2022-12-01T09:02:24.262Z,100974.25
2022-12-01T09:05:32.530Z,100978.75
2022-12-01T09:08:45.767Z,100983.00
2022-12-01T09:11:49.283Z,100983.84
2022-12-01T09:14:52.283Z,100981.91
2022-12-01T09:17:55.243Z,100988.34
2022-12-01T09:20:58.872Z,100985.69
2022-12-01T09:24:03.915Z,100982.25
2022-12-01T09:27:06.668Z,100971.09
2022-12-01T09:30:09.614Z,100975.69
2022-12-01T09:33:14.904Z,100963.22
2022-12-01T09:36:21.621Z,100963.09
2022-12-01T09:39:26.213Z,100961.12
2022-12-01T09:42:35.394Z,100965.06
2022-12-01T09:45:40.803Z,100966.59
2022-12-01T09:48:47.743Z,100960.56
2022-12-01T09:51:54.763Z,100965.03
2022-12-01T09:55:07.401Z,100960.28
2022-12-01T09:58:18.277Z,100956.09
2022-12-01T10:01:26.973Z,100958.75
2022-12-01T10:04:35.766Z,100962.69
2022-12-01T10:07:41.609Z,100949.25
2022-12-01T10:10:46.812Z,100947.16
2022-12-01T10:13:51.955Z,100947.12
2022-12-01T10:17:01.281Z,100942.53
2022-12-01T10:20:11.436Z,100946.81
2022-12-01T10:23:21.500Z,100946.66
2022-12-01T10:26:42.617Z,100939.81
2022-12-01T10:29:49.777Z,100936.94
2022-12-01T10:32:54.134Z,100929.16
2022-12-01T10:36:01.488Z,100926.50
2022-12-01T10:39:07.431Z,100923.97
2022-12-01T10:42:34.130Z,100925.16
2022-12-01T10:45:37.986Z,100923.88
2022-12-01T10:48:56.311Z,100926.00
2022-12-01T10:52:03.754Z,100917.31
2022-12-01T10:55:28.164Z,100921.81
2022-12-01T10:58:34.843Z,100920.00
2022-12-01T11:01:38.064Z,100915.72
2022-12-01T11:04:54.542Z,100912.59
2022-12-01T11:07:58.412Z,100915.06
2022-12-01T11:11:02.679Z,100909.31
2022-12-01T11:14:26.858Z,100905.75
2022-12-01T11:17:29.829Z,100897.59
2022-12-01T11:20:39.794Z,100892.19
2022-12-01T11:23:48.213Z,100888.59
2022-12-01T11:26:51.821Z,100889.59
2022-12-01T11:29:59.424Z,100886.56
2022-12-01T11:33:05.781Z,100875.34
2022-12-01T11:36:16.009Z,100883.59
2022-12-01T11:39:25.277Z,100877.91
2022-12-01T11:42:30.745Z,100875.38
2022-12-01T11:45:41.288Z,100868.44
2022-12-01T11:48:57.199Z,100874.72
2022-12-01T11:52:17.010Z,100876.88
2022-12-01T11:55:21.622Z,100880.09
2022-12-01T11:58:25.024Z,100869.62
2022-12-01T12:01:47.832Z,100872.31
2022-12-01T12:05:01.077Z,100869.41
2022-12-01T12:08:08.777Z,100865.69
2022-12-01T12:11:17.196Z,100867.84
2022-12-01T12:14:23.269Z,100869.78
2022-12-01T12:17:49.391Z,100871.59
2022-12-01T12:21:11.014Z,100866.50
2022-12-01T12:24:37.989Z,100859.88
2022-12-01T12:27:55.404Z,100859.03
2022-12-01T12:30:58.852Z,100850.41
2022-12-01T12:34:15.214Z,100858.00
2022-12-01T12:37:27.021Z,100860.13
2022-12-01T12:40:30.085Z,100861.66
2022-12-01T12:43:34.199Z,100866.84
2022-12-01T12:46:43.389Z,100866.25
2022-12-01T12:50:05.752Z,100858.81
2022-12-01T12:53:16.789Z,100858.38
2022-12-01T12:56:21.733Z,100852.44
2022-12-01T12:59:31.711Z,100858.09
2022-12-01T13:02:53.507Z,100855.38
2022-12-01T13:06:18.694Z,100858.59
2022-12-01T13:09:24.043Z,100854.72
2022-12-01T13:12:31.048Z,100849.06
2022-12-01T13:15:37.192Z,100843.41
2022-12-01T13:18:45.589Z,100843.31
2022-12-01T13:21:51.623Z,100851.66
2022-12-01T13:24:54.042Z,100853.78
2022-12-01T13:27:58.965Z,100845.59
2022-12-01T13:31:12.556Z,100851.56
2022-12-01T13:34:27.743Z,100856.75
2022-12-01T13:37:34.961Z,100850.78
2022-12-01T13:40:38.769Z,100852.50
2022-12-01T13:43:57.540Z,100854.47
2022-12-01T13:47:03.903Z,100856.19
2022-12-01T13:50:25.382Z,100853.69
2022-12-01T13:53:38.775Z,100858.16
2022-12-01T13:56:59.397Z,100851.41
2022-12-01T14:00:05.472Z,100849.78
2022-12-01T14:03:17.780Z,100852.44
2022-12-01T14:06:26.625Z,100851.97
2022-12-01T14:09:32.789Z,100853.56
2022-12-01T14:12:38.466Z,100852.12
2022-12-01T14:15:43.016Z,100845.81
2022-12-01T14:18:56.632Z,100841.75
2022-12-01T14:22:01.156Z,100837.88
2022-12-01T14:25:26.992Z,100840.81
2022-12-01T14:28:48.155Z,100841.13
2022-12-01T14:31:50.552Z,100839.00
2022-12-01T14:34:56.680Z,100839.34
2022-12-01T14:38:00.127Z,100843.31
2022-12-01T14:41:11.206Z,100839.53
2022-12-01T14:44:19.948Z,100842.62
2022-12-01T14:47:43.902Z,100837.81
2022-12-01T14:50:53.346Z,100835.78
2022-12-01T14:54:01.971Z,100843.87
2022-12-01T14:57:07.466Z,100840.81
2022-12-01T15:00:21.571Z,100851.63
2022-12-01T15:03:31.835Z,100848.53
2022-12-01T15:06:36.625Z,100849.63
2022-12-01T15:09:59.819Z,100853.13
2022-12-01T15:13:16.026Z,100850.47
2022-12-01T15:16:33.061Z,100857.53
2022-12-01T15:19:39.411Z,100849.94
2022-12-01T15:22:43.121Z,100854.41
2022-12-01T15:25:46.508Z,100846.66
2022-12-01T15:28:49.307Z,100849.41
2022-12-01T15:31:57.230Z,100852.19
2022-12-01T15:35:05.511Z,100852.47
2022-12-01T15:38:16.801Z,100845.81
2022-12-01T15:41:29.653Z,100840.59
2022-12-01T15:44:35.064Z,100846.31
2022-12-01T15:47:43.554Z,100845.38
2022-12-01T15:50:51.078Z,100848.09
2022-12-01T15:53:56.238Z,100850.87
2022-12-01T15:57:03.959Z,100845.81
2022-12-01T16:00:08.648Z,100846.84
2022-12-01T16:03:14.609Z,100851.28
2022-12-01T16:06:19.558Z,100857.63
2022-12-01T16:09:26.119Z,100854.66
2022-12-01T16:12:29.932Z,100848.94
2022-12-01T16:15:42.747Z,100857.87
2022-12-01T16:18:53.407Z,100847.09
2022-12-01T16:22:02.541Z,100849.09
2022-12-01T16:25:06.261Z,100859.56
2022-12-01T16:28:23.901Z,100849.69
2022-12-01T16:31:28.213Z,100853.06
2022-12-01T16:34:46.037Z,100853.16
2022-12-01T16:37:49.642Z,100851.84
2022-12-01T16:40:57.053Z,100856.50
2022-12-01T16:44:26.932Z,100849.91
2022-12-01T16:47:26.381Z,100851.94
2022-12-01T16:50:30.820Z,100852.97
2022-12-01T16:53:34.023Z,100850.69
2022-12-01T16:56:40.754Z,100850.75
2022-12-01T16:59:49.812Z,100844.84
2022-12-01T17:02:53.100Z,100849.16
2022-12-01T17:06:19.214Z,100849.16
2022-12-01T17:09:25.112Z,100855.19
2022-12-01T17:12:29.626Z,100863.78
2022-12-01T17:15:32.260Z,100863.81
2022-12-01T17:18:36.953Z,100855.19
2022-12-01T17:21:39.378Z,100851.66
2022-12-01T17:24:42.611Z,100857.78
2022-12-01T17:27:46.408Z,100864.09
2022-12-01T17:30:52.312Z,100864.00
2022-12-01T17:33:56.355Z,100863.94
2022-12-01T17:37:00.430Z,100869.31
2022-12-01T17:40:06.996Z,100864.88
2022-12-01T17:43:28.936Z,100864.09
2022-12-01T17:46:32.600Z,100865.38
2022-12-01T17:49:36.331Z,100872.69
2022-12-01T17:52:39.239Z,100866.81
2022-12-01T17:55:49.021Z,100867.06
2022-12-01T17:58:52.026Z,100864.72
2022-12-01T18:01:55.390Z,100865.22
2022-12-01T18:05:01.629Z,100870.66
2022-12-01T18:08:07.885Z,100870.25
2022-12-01T18:11:12.536Z,100872.19
2022-12-01T18:14:19.628Z,100872.72
2022-12-01T18:17:22.232Z,100872.31
2022-12-01T18:20:29.523Z,100872.28
2022-12-01T18:23:32.286Z,100870.03
2022-12-01T18:26:34.740Z,100873.72
2022-12-01T18:29:37.422Z,100871.63
2022-12-01T18:32:53.224Z,100870.06
2022-12-01T18:35:56.508Z,100871.22
2022-12-01T18:38:59.749Z,100876.59
2022-12-01T18:42:03.366Z,100868.22
2022-12-01T18:45:06.615Z,100875.28
2022-12-01T18:48:09.831Z,100879.53
2022-12-01T18:51:13.656Z,100881.34
2022-12-01T18:54:16.040Z,100877.84
2022-12-01T18:57:20.785Z,100880.44
2022-12-01T19:00:24.065Z,100885.59
2022-12-01T19:03:29.516Z,100873.63
2022-12-01T19:06:33.727Z,100877.16
2022-12-01T19:09:36.598Z,100878.88
2022-12-01T19:12:41.255Z,100885.03
2022-12-01T19:15:44.518Z,100875.75
2022-12-01T19:18:46.942Z,100881.91
2022-12-01T19:21:50.898Z,100887.00
2022-12-01T19:24:54.736Z,100887.19
2022-12-01T19:27:59.225Z,100889.75
2022-12-01T19:31:06.778Z,100891.59
2022-12-01T19:34:10.449Z,100889.09
2022-12-01T19:37:14.965Z,100884.81
2022-12-01T19:40:17.860Z,100880.59
2022-12-01T19:43:23.224Z,100881.59
2022-12-01T19:46:29.556Z,100888.44
2022-12-01T19:49:34.609Z,100879.66
2022-12-01T19:52:37.546Z,100880.66
2022-12-01T19:55:41.544Z,100888.37
2022-12-01T19:58:44.791Z,100894.19
2022-12-01T20:01:47.859Z,100891.69
2022-12-01T20:04:52.743Z,100896.12
2022-12-01T20:07:56.669Z,100897.69
2022-12-01T20:11:05.153Z,100886.78
2022-12-01T20:14:11.213Z,100884.19
2022-12-01T20:17:16.113Z,100889.47
2022-12-01T20:20:20.021Z,100898.13
2022-12-01T20:23:22.966Z,100894.06
2022-12-01T20:26:30.416Z,100897.66
2022-12-01T20:29:35.284Z,100890.03
2022-12-01T20:32:44.624Z,100897.03
2022-12-01T20:35:47.405Z,100893.75
2022-12-01T20:38:53.367Z,100898.13
2022-12-01T20:41:56.770Z,100899.16
2022-12-01T20:44:59.959Z,100900.09
2022-12-01T20:48:09.315Z,100908.91
2022-12-01T20:51:19.660Z,100916.00
2022-12-01T20:54:29.070Z,100916.09
2022-12-01T20:57:32.303Z,100914.56
2022-12-01T21:00:40.913Z,100911.97
2022-12-01T21:03:46.062Z,100918.97
2022-12-01T21:06:51.513Z,100919.63
2022-12-01T21:09:55.008Z,100915.53
2022-12-01T21:13:18.923Z,100922.59
2022-12-01T21:16:29.813Z,100930.31
2022-12-01T21:19:45.240Z,100933.16
2022-12-01T21:22:49.862Z,100929.66
2022-12-01T21:25:56.646Z,100933.25
2022-12-01T21:29:00.977Z,100935.97
2022-12-01T21:32:12.607Z,100928.44
2022-12-01T21:35:20.993Z,100932.09
2022-12-01T21:38:23.823Z,100927.94
2022-12-01T21:41:29.223Z,100933.16
2022-12-01T21:44:39.487Z,100932.37
2022-12-01T21:47:43.289Z,100938.06
2022-12-01T21:50:52.282Z,100929.75
2022-12-01T21:53:59.510Z,100931.34
2022-12-01T21:57:22.422Z,100928.69
2022-12-01T22:00:33.138Z,100935.75
2022-12-01T22:03:40.374Z,100941.91
2022-12-01T22:06:47.826Z,100934.81
2022-12-01T22:09:52.658Z,100930.56
2022-12-01T22:12:57.392Z,100941.00
2022-12-01T22:16:01.567Z,100934.19
2022-12-01T22:19:26.149Z,100932.47
2022-12-01T22:22:33.876Z,100933.16
2022-12-01T22:25:38.434Z,100939.06
2022-12-01T22:28:42.139Z,100930.38
2022-12-01T22:31:59.565Z,100924.31
2022-12-01T22:35:22.635Z,100929.31
2022-12-01T22:38:34.012Z,100919.63
2022-12-01T22:41:36.785Z,100925.34
2022-12-01T22:44:40.545Z,100923.44
2022-12-01T22:47:45.033Z,100919.78
2022-12-01T22:50:51.735Z,100918.75
2022-12-01T22:54:03.712Z,100920.03
2022-12-01T22:57:21.993Z,100923.25
2022-12-01T23:00:30.475Z,100918.75
2022-12-01T23:03:35.416Z,100914.38
2022-12-01T23:06:58.194Z,100908.25
2022-12-01T23:10:04.420Z,100909.19
2022-12-01T23:13:15.311Z,100913.41
2022-12-01T23:16:17.831Z,100912.50
2022-12-01T23:19:23.055Z,100918.31
2022-12-01T23:22:27.990Z,100916.66
2022-12-01T23:25:31.722Z,100918.34
2022-12-01T23:28:36.169Z,100917.44
2022-12-01T23:31:39.038Z,100911.06
2022-12-01T23:34:42.223Z,100914.50
2022-12-01T23:37:50.804Z,100924.81
2022-12-01T23:40:59.428Z,100914.56
2022-12-01T23:44:05.030Z,100915.31
2022-12-01T23:47:28.967Z,100925.53
2022-12-01T23:50:32.209Z,100921.09
2022-12-01T23:53:34.829Z,100917.66
2022-12-01T23:56:38.415Z,100925.53
2022-12-01T23:59:43.273Z,100928.06
